Time;durP1;ratioP1;P1;durP2;ratioP2;P2;SDS_P1;SDS_P2;PMS_P1;PMS_P2;Temp;Humidity;BMP_temperature;BMP_pressure;BME280_temperature;BME280_humidity;BME280_pressure;Samples;Min_cycle;Max_cycle;Signal;HPM_P1;HPM_P2
2022/05/19 00:02:06;;;;;;;3.40;3.10;;;;;;;;;;4987512;28;20281;-65
2022/05/19 00:04:34;;;;;;;3.37;2.97;;;;;;;;;;5007101;28;20204;-65
2022/05/19 00:07:01;;;;;;;3.83;3.10;;;;;;;;;;5006443;28;20836;-65
2022/05/19 00:09:29;;;;;;;3.67;3.00;;;;;;;;;;4976533;28;20274;-65
2022/05/19 00:11:57;;;;;;;4.00;3.27;;;;;;;;;;5005104;28;20757;-65
2022/05/19 00:14:24;;;;;;;3.27;2.97;;;;;;;;;;5001947;28;20203;-65
2022/05/19 00:16:56;;;;;;;3.20;2.63;;;;;;;;;;5003465;28;20215;-65
2022/05/19 00:19:23;;;;;;;4.50;3.10;;;;;;;;;;5007789;28;20188;-65
2022/05/19 00:21:51;;;;;;;3.33;2.93;;;;;;;;;;4989578;28;20581;-65
2022/05/19 00:24:18;;;;;;;3.73;3.37;;;;;;;;;;5007813;28;20246;-65
2022/05/19 00:26:45;;;;;;;3.73;3.33;;;;;;;;;;5002228;28;20231;-65
2022/05/19 00:29:12;;;;;;;3.27;2.97;;;;;;;;;;4990557;28;20192;-65
2022/05/19 00:31:40;;;;;;;3.80;3.40;;;;;;;;;;5006459;28;20551;-65
2022/05/19 00:34:07;;;;;;;5.00;3.10;;;;;;;;;;5007145;28;20199;-65
2022/05/19 00:36:34;;;;;;;3.47;2.90;;;;;;;;;;5001591;28;20220;-65
2022/05/19 00:39:01;;;;;;;5.00;3.30;;;;;;;;;;5007928;28;20257;-65
2022/05/19 00:41:28;;;;;;;3.80;3.40;;;;;;;;;;5000249;28;20268;-65
2022/05/19 00:43:58;;;;;;;3.57;2.93;;;;;;;;;;5004030;28;20211;-65
2022/05/19 00:46:26;;;;;;;5.43;3.03;;;;;;;;;;5001087;28;20216;-65
2022/05/19 00:48:56;;;;;;;3.87;3.40;;;;;;;;;;5003344;28;20220;-65
2022/05/19 00:51:46;;;;;;;3.73;3.10;;;;;;;;;;5006506;28;20598;-65
2022/05/19 00:54:18;;;;;;;3.40;3.10;;;;;;;;;;5000242;28;20228;-65
2022/05/19 00:57:00;;;;;;;3.43;2.90;;;;;;;;;;5004209;28;20253;-65
2022/05/19 00:59:33;;;;;;;3.43;3.13;;;;;;;;;;5006287;28;20191;-65
2022/05/19 01:02:02;;;;;;;4.00;3.70;;;;;;;;;;5003281;28;20289;-65
2022/05/19 01:04:36;;;;;;;3.33;3.03;;;;;;;;;;5013141;28;20203;-65
2022/05/19 01:07:05;;;;;;;3.37;3.07;;;;;;;;;;5005142;28;20242;-65
2022/05/19 01:09:34;;;;;;;4.33;3.93;;;;;;;;;;5014560;28;20389;-65
2022/05/19 01:12:06;;;;;;;3.50;3.20;;;;;;;;;;5009457;28;20204;-65
2022/05/19 01:14:33;;;;;;;3.43;3.10;;;;;;;;;;5005385;28;20217;-65
2022/05/19 01:17:01;;;;;;;5.03;4.37;;;;;;;;;;5007398;28;20216;-65
2022/05/19 01:19:31;;;;;;;3.83;3.20;;;;;;;;;;5010541;28;20531;-65
2022/05/19 01:22:01;;;;;;;3.77;3.47;;;;;;;;;;5009424;28;20196;-65
2022/05/19 01:24:34;;;;;;;5.07;3.63;;;;;;;;;;5005999;28;20617;-65
2022/05/19 01:27:03;;;;;;;3.73;3.23;;;;;;;;;;5010144;28;20231;-65
2022/05/19 01:29:30;;;;;;;5.13;3.70;;;;;;;;;;5007911;28;20204;-65
2022/05/19 01:31:58;;;;;;;4.50;3.13;;;;;;;;;;5009663;28;20258;-65
2022/05/19 01:34:30;;;;;;;4.20;3.50;;;;;;;;;;5012342;28;20196;-65
2022/05/19 01:36:58;;;;;;;3.67;3.37;;;;;;;;;;5007335;28;20216;-65
2022/05/19 01:39:30;;;;;;;3.70;3.37;;;;;;;;;;5014423;28;20203;-65
2022/05/19 01:42:09;;;;;;;4.57;3.70;;;;;;;;;;5008936;28;20254;-65
2022/05/19 01:44:55;;;;;;;3.70;3.40;;;;;;;;;;4997670;28;20200;-65
2022/05/19 01:47:25;;;;;;;4.20;3.80;;;;;;;;;;5004781;28;20250;-65
2022/05/19 01:50:11;;;;;;;5.33;3.27;;;;;;;;;;5009706;28;20219;-65
2022/05/19 01:52:45;;;;;;;4.50;3.73;;;;;;;;;;5006532;28;20188;-65
2022/05/19 01:55:19;;;;;;;4.53;3.70;;;;;;;;;;5010678;28;20288;-65
2022/05/19 01:57:51;;;;;;;6.27;4.30;;;;;;;;;;5008634;28;20215;-65
2022/05/19 02:00:18;;;;;;;4.60;4.20;;;;;;;;;;5003673;28;20200;-65
2022/05/19 02:02:55;;;;;;;4.23;3.80;;;;;;;;;;4999431;28;20266;-65
2022/05/19 02:05:23;;;;;;;3.20;2.90;;;;;;;;;;5010097;28;20212;-65
2022/05/19 02:07:52;;;;;;;4.50;3.77;;;;;;;;;;5008838;28;20301;-65
2022/05/19 02:10:23;;;;;;;3.90;3.50;;;;;;;;;;5012337;28;20196;-65
2022/05/19 02:12:51;;;;;;;4.67;3.57;;;;;;;;;;5000534;28;20231;-65
2022/05/19 02:15:21;;;;;;;4.27;3.40;;;;;;;;;;5012590;28;20751;-65
2022/05/19 02:17:50;;;;;;;3.70;2.93;;;;;;;;;;5009684;28;20207;-65
2022/05/19 02:20:19;;;;;;;3.70;3.40;;;;;;;;;;5011783;28;20829;-65
2022/05/19 02:22:46;;;;;;;3.80;3.27;;;;;;;;;;5007446;28;20385;-65
2022/05/19 02:25:17;;;;;;;3.93;3.43;;;;;;;;;;5002785;28;20224;-65
2022/05/19 02:28:03;;;;;;;3.60;3.27;;;;;;;;;;5009473;28;20217;-65
2022/05/19 02:30:32;;;;;;;3.03;2.73;;;;;;;;;;5007650;28;20196;-65
2022/05/19 02:32:59;;;;;;;3.47;3.17;;;;;;;;;;5007796;28;20199;-65
2022/05/19 02:35:27;;;;;;;3.83;3.33;;;;;;;;;;5014566;28;20196;-65
2022/05/19 02:37:55;;;;;;;3.60;3.30;;;;;;;;;;5006899;28;20277;-65
2022/05/19 02:40:24;;;;;;;3.50;3.20;;;;;;;;;;5007740;28;20290;-65
2022/05/19 02:42:51;;;;;;;3.70;3.17;;;;;;;;;;4991213;28;20243;-65
2022/05/19 02:45:19;;;;;;;3.53;3.20;;;;;;;;;;5011388;28;20661;-65
2022/05/19 02:47:47;;;;;;;5.20;3.20;;;;;;;;;;5008506;28;20223;-65
2022/05/19 02:50:15;;;;;;;4.00;3.30;;;;;;;;;;5009280;28;20223;-64
2022/05/19 02:52:42;;;;;;;3.43;3.13;;;;;;;;;;5003288;28;20745;-64
2022/05/19 02:55:10;;;;;;;3.30;2.90;;;;;;;;;;5009622;28;20195;-65
2022/05/19 02:57:37;;;;;;;3.23;2.93;;;;;;;;;;5008809;28;20216;-65
2022/05/19 03:00:06;;;;;;;3.30;3.00;;;;;;;;;;5009308;28;20195;-65
2022/05/19 03:02:33;;;;;;;3.63;3.33;;;;;;;;;;4985316;28;20668;-65
2022/05/19 03:05:01;;;;;;;3.40;3.10;;;;;;;;;;5008925;28;20207;-65
2022/05/19 03:07:28;;;;;;;3.43;3.13;;;;;;;;;;4998234;28;20224;-65
2022/05/19 03:09:55;;;;;;;3.43;3.13;;;;;;;;;;5009539;28;20241;-65
2022/05/19 03:12:23;;;;;;;3.50;3.20;;;;;;;;;;5006542;28;20231;-65
2022/05/19 03:14:50;;;;;;;4.60;3.40;;;;;;;;;;5006841;28;20236;-65
2022/05/19 03:17:17;;;;;;;3.37;2.90;;;;;;;;;;5008003;28;20211;-65
2022/05/19 03:19:44;;;;;;;3.87;3.33;;;;;;;;;;5009188;28;20199;-65
2022/05/19 03:22:11;;;;;;;2.97;2.77;;;;;;;;;;5008674;28;20688;-65
2022/05/19 03:24:38;;;;;;;4.47;3.30;;;;;;;;;;5017474;28;20207;-64
2022/05/19 03:27:06;;;;;;;3.60;3.30;;;;;;;;;;5015096;28;20270;-65
2022/05/19 03:29:33;;;;;;;3.30;3.00;;;;;;;;;;5007834;28;20188;-65
2022/05/19 03:32:01;;;;;;;4.07;3.37;;;;;;;;;;5008978;28;20195;-65
2022/05/19 03:34:28;;;;;;;3.20;3.00;;;;;;;;;;5005289;28;20196;-65
2022/05/19 03:36:55;;;;;;;3.43;3.10;;;;;;;;;;5005245;28;20258;-65
2022/05/19 03:39:22;;;;;;;4.10;3.23;;;;;;;;;;4990449;28;20443;-65
2022/05/19 03:41:49;;;;;;;3.50;3.20;;;;;;;;;;5013555;28;20204;-65
2022/05/19 03:44:16;;;;;;;3.23;2.93;;;;;;;;;;5008025;28;20214;-65
2022/05/19 03:46:44;;;;;;;3.63;3.33;;;;;;;;;;5010530;28;20861;-65
2022/05/19 03:49:13;;;;;;;3.43;3.13;;;;;;;;;;5020225;28;20192;-65
2022/05/19 03:51:42;;;;;;;3.43;3.13;;;;;;;;;;4994408;28;20192;-65
2022/05/19 03:54:09;;;;;;;3.90;3.30;;;;;;;;;;5007730;28;20203;-65
2022/05/19 03:56:37;;;;;;;3.77;3.47;;;;;;;;;;5011463;28;20199;-64
2022/05/19 03:59:06;;;;;;;3.33;3.03;;;;;;;;;;5006795;28;20196;-65
2022/05/19 04:01:36;;;;;;;3.23;2.93;;;;;;;;;;4989191;28;20199;-65
2022/05/19 04:04:12;;;;;;;4.17;3.17;;;;;;;;;;5007162;28;20215;-65
2022/05/19 04:06:42;;;;;;;3.23;2.90;;;;;;;;;;5004351;28;20257;-65
2022/05/19 04:09:14;;;;;;;3.60;3.00;;;;;;;;;;5006908;28;20200;-65
2022/05/19 04:11:43;;;;;;;3.80;3.20;;;;;;;;;;5007616;28;20199;-65
2022/05/19 04:14:12;;;;;;;4.03;2.77;;;;;;;;;;5003279;28;20231;-65
2022/05/19 04:16:42;;;;;;;4.63;3.20;;;;;;;;;;5004516;28;20200;-66
2022/05/19 04:19:18;;;;;;;3.40;3.10;;;;;;;;;;5002895;28;20253;-66
2022/05/19 04:21:47;;;;;;;3.03;2.73;;;;;;;;;;5011837;28;20200;-64
2022/05/19 04:24:19;;;;;;;3.67;3.00;;;;;;;;;;5011251;28;20774;-64
2022/05/19 04:26:49;;;;;;;3.63;3.23;;;;;;;;;;5006503;28;20228;-65
2022/05/19 04:29:19;;;;;;;4.50;3.10;;;;;;;;;;5005791;28;20201;-65
2022/05/19 04:31:47;;;;;;;3.50;3.00;;;;;;;;;;5009092;28;20200;-65
2022/05/19 04:34:19;;;;;;;4.17;3.03;;;;;;;;;;4990390;28;20198;-65
2022/05/19 04:36:48;;;;;;;3.37;2.80;;;;;;;;;;4991558;28;20261;-65
2022/05/19 04:39:15;;;;;;;3.50;3.20;;;;;;;;;;5013833;28;20200;-65
2022/05/19 04:41:44;;;;;;;3.23;3.00;;;;;;;;;;5014949;28;20516;-64
2022/05/19 04:44:13;;;;;;;3.53;3.23;;;;;;;;;;5014865;28;20200;-65
2022/05/19 04:46:57;;;;;;;2.93;2.73;;;;;;;;;;5017516;28;21098;-64
2022/05/19 04:49:26;;;;;;;3.33;3.03;;;;;;;;;;4994137;28;20286;-64
2022/05/19 04:51:55;;;;;;;3.60;3.10;;;;;;;;;;5016396;28;20664;-65
2022/05/19 04:54:22;;;;;;;3.57;3.00;;;;;;;;;;5011095;28;20261;-64
2022/05/19 04:56:51;;;;;;;3.20;2.90;;;;;;;;;;5013017;28;20567;-65
2022/05/19 04:59:20;;;;;;;3.10;2.80;;;;;;;;;;5010888;28;20211;-65
2022/05/19 05:01:54;;;;;;;4.67;3.40;;;;;;;;;;5010389;28;20737;-65
2022/05/19 05:04:23;;;;;;;2.90;2.70;;;;;;;;;;5010557;28;20191;-64
2022/05/19 05:06:57;;;;;;;2.93;2.70;;;;;;;;;;5010917;28;20559;-66
2022/05/19 05:09:24;;;;;;;3.40;3.10;;;;;;;;;;5010521;28;20227;-66
2022/05/19 05:11:52;;;;;;;4.70;3.30;;;;;;;;;;5016586;28;20195;-65
2022/05/19 05:14:19;;;;;;;3.20;2.70;;;;;;;;;;4983377;28;20213;-64
2022/05/19 05:16:48;;;;;;;3.33;3.03;;;;;;;;;;5012975;28;20207;-64
2022/05/19 05:19:18;;;;;;;2.80;2.60;;;;;;;;;;5025371;28;20536;-64
2022/05/19 05:21:46;;;;;;;3.03;2.67;;;;;;;;;;5014069;28;20516;-65
2022/05/19 05:24:13;;;;;;;4.90;4.10;;;;;;;;;;5009268;28;20262;-65
2022/05/19 05:26:40;;;;;;;17.77;7.53;;;;;;;;;;4993466;28;20209;-64
2022/05/19 05:29:09;;;;;;;17.13;6.93;;;;;;;;;;4996016;28;20204;-64
2022/05/19 05:31:40;;;;;;;11.90;4.70;;;;;;;;;;5011918;28;20270;-66
2022/05/19 05:34:12;;;;;;;7.33;5.10;;;;;;;;;;5024055;28;20191;-66
2022/05/19 05:36:41;;;;;;;9.57;5.23;;;;;;;;;;5006510;28;20683;-66
2022/05/19 05:39:12;;;;;;;9.13;4.77;;;;;;;;;;5009637;28;20195;-65
2022/05/19 05:41:42;;;;;;;12.57;5.70;;;;;;;;;;5008847;28;20202;-65
2022/05/19 05:44:11;;;;;;;9.87;5.90;;;;;;;;;;5006163;28;20199;-65
2022/05/19 05:46:44;;;;;;;9.17;5.60;;;;;;;;;;5010364;28;20234;-66
2022/05/19 05:49:18;;;;;;;13.67;5.90;;;;;;;;;;5007833;28;20638;-65
2022/05/19 05:51:51;;;;;;;12.13;6.37;;;;;;;;;;5013556;28;20203;-65
2022/05/19 05:54:21;;;;;;;14.17;7.07;;;;;;;;;;5004262;28;20199;-65
2022/05/19 05:56:55;;;;;;;11.27;6.30;;;;;;;;;;5007542;28;20225;-64
2022/05/19 05:59:27;;;;;;;10.97;6.17;;;;;;;;;;4996840;28;20533;-64
2022/05/19 06:01:54;;;;;;;10.03;6.10;;;;;;;;;;4999537;28;20289;-65
2022/05/19 06:04:21;;;;;;;14.27;6.47;;;;;;;;;;4993936;28;20208;-64
2022/05/19 06:06:48;;;;;;;10.67;6.50;;;;;;;;;;4996651;28;20850;-65
2022/05/19 06:09:16;;;;;;;11.43;6.13;;;;;;;;;;4994645;28;20836;-64
2022/05/19 06:11:43;;;;;;;9.50;5.90;;;;;;;;;;4992936;28;20201;-65
2022/05/19 06:14:11;;;;;;;9.13;5.87;;;;;;;;;;4993888;28;20262;-65
2022/05/19 06:16:38;;;;;;;8.13;6.27;;;;;;;;;;5000367;28;20680;-64
2022/05/19 06:19:05;;;;;;;7.50;5.77;;;;;;;;;;4994072;28;20200;-64
2022/05/19 06:21:36;;;;;;;8.43;5.03;;;;;;;;;;4997054;28;20201;-65
2022/05/19 06:24:08;;;;;;;53.03;14.43;;;;;;;;;;4996901;28;20218;-65
2022/05/19 06:26:37;;;;;;;24.93;10.00;;;;;;;;;;4999205;28;20215;-65
2022/05/19 06:29:04;;;;;;;20.20;9.13;;;;;;;;;;5003553;28;20211;-66
2022/05/19 06:31:31;;;;;;;18.90;9.43;;;;;;;;;;4997825;28;20250;-66
2022/05/19 06:34:00;;;;;;;17.40;9.27;;;;;;;;;;5002620;28;20185;-66
2022/05/19 06:36:29;;;;;;;20.70;9.27;;;;;;;;;;4994544;28;20209;-66
2022/05/19 06:38:58;;;;;;;13.13;8.90;;;;;;;;;;5004320;28;20207;-67
2022/05/19 06:44:17;;;;;;;14.77;9.07;;;;;;;;;;5013243;28;20211;-64
2022/05/19 06:46:48;;;;;;;10.47;7.73;;;;;;;;;;5005459;28;20212;-65
2022/05/19 06:49:20;;;;;;;9.57;7.87;;;;;;;;;;5005596;28;20211;-65
2022/05/19 06:51:49;;;;;;;12.00;7.43;;;;;;;;;;5003625;28;20218;-66
2022/05/19 06:54:26;;;;;;;17.37;7.70;;;;;;;;;;5000894;28;20580;-65
2022/05/19 06:56:56;;;;;;;10.33;6.50;;;;;;;;;;5003767;28;20196;-66
2022/05/19 06:59:25;;;;;;;11.47;6.70;;;;;;;;;;4999363;28;20215;-67
2022/05/19 07:01:52;;;;;;;9.70;6.70;;;;;;;;;;4985176;28;20193;-67
2022/05/19 07:04:21;;;;;;;10.97;6.47;;;;;;;;;;5007816;28;20666;-64
2022/05/19 07:06:50;;;;;;;8.87;6.53;;;;;;;;;;5006482;28;20202;-65
2022/05/19 07:09:27;;;;;;;8.23;6.57;;;;;;;;;;5002744;28;20258;-65
2022/05/19 07:11:59;;;;;;;7.57;6.53;;;;;;;;;;5008894;28;20261;-64
2022/05/19 07:14:32;;;;;;;9.73;6.43;;;;;;;;;;4988914;28;20520;-64
2022/05/19 07:16:59;;;;;;;6.73;6.07;;;;;;;;;;4993019;28;20200;-65
2022/05/19 07:22:22;;;;;;;7.47;5.73;;;;;;;;;;4991459;28;20185;-66
2022/05/19 07:24:50;;;;;;;7.63;5.67;;;;;;;;;;4992325;28;20226;-65
2022/05/19 07:27:18;;;;;;;5.57;5.07;;;;;;;;;;4998253;28;20224;-66
2022/05/19 07:29:45;;;;;;;7.70;5.10;;;;;;;;;;4994091;28;20207;-65
2022/05/19 07:32:20;;;;;;;6.57;5.17;;;;;;;;;;4986164;28;20581;-66
2022/05/19 07:34:47;;;;;;;5.83;4.70;;;;;;;;;;4999549;28;20672;-67
2022/05/19 07:37:15;;;;;;;5.67;4.83;;;;;;;;;;4993819;28;20215;-67
2022/05/19 07:39:42;;;;;;;6.33;5.00;;;;;;;;;;5010064;28;20666;-66
2022/05/19 07:42:09;;;;;;;7.97;4.80;;;;;;;;;;5006602;28;20199;-67
2022/05/19 07:44:36;;;;;;;6.67;4.33;;;;;;;;;;5008685;28;20210;-67
2022/05/19 07:47:06;;;;;;;5.37;4.87;;;;;;;;;;5006912;28;20195;-70
2022/05/19 07:49:39;;;;;;;7.37;4.63;;;;;;;;;;5001558;28;20208;-67
2022/05/19 07:52:08;;;;;;;5.20;4.53;;;;;;;;;;5003787;28;20687;-67
2022/05/19 07:54:39;;;;;;;6.60;4.90;;;;;;;;;;5004386;28;20219;-68
2022/05/19 07:57:10;;;;;;;5.97;4.60;;;;;;;;;;5006793;28;20191;-66
2022/05/19 07:59:38;;;;;;;7.53;4.50;;;;;;;;;;5005258;28;20608;-68
2022/05/19 08:02:07;;;;;;;5.37;4.33;;;;;;;;;;5005697;28;20220;-67
2022/05/19 08:04:36;;;;;;;5.60;4.53;;;;;;;;;;4980157;28;20204;-70
2022/05/19 08:07:06;;;;;;;5.63;3.90;;;;;;;;;;4975479;28;20206;-69
2022/05/19 08:18:12;;;;;;;4.23;3.83;;;;;;;;;;4997998;28;20264;-68
2022/05/19 08:20:43;;;;;;;6.20;4.20;;;;;;;;;;4998809;28;20204;-68
2022/05/19 08:23:18;;;;;;;8.00;3.87;;;;;;;;;;4994673;28;20192;-67
2022/05/19 08:25:47;;;;;;;4.50;3.43;;;;;;;;;;4992245;28;20220;-69
2022/05/19 08:28:29;;;;;;;4.20;3.40;;;;;;;;;;5007695;28;20223;-69
2022/05/19 08:31:02;;;;;;;6.10;3.50;;;;;;;;;;4980386;28;20203;-67
2022/05/19 08:33:31;;;;;;;5.30;3.80;;;;;;;;;;4964899;28;20808;-69
2022/05/19 08:35:58;;;;;;;3.77;2.93;;;;;;;;;;4992049;28;20192;-68
2022/05/19 08:38:35;;;;;;;3.77;3.43;;;;;;;;;;4987892;28;20219;-67
2022/05/19 08:41:04;;;;;;;5.30;3.50;;;;;;;;;;4983826;28;20575;-68
2022/05/19 08:43:57;;;;;;;7.67;3.47;;;;;;;;;;4991386;28;20267;-68
2022/05/19 08:46:31;;;;;;;4.57;3.50;;;;;;;;;;4982315;28;20212;-68
2022/05/19 08:49:06;;;;;;;5.37;3.53;;;;;;;;;;4989083;28;20256;-68
2022/05/19 08:52:07;;;;;;;7.83;3.67;;;;;;;;;;4990286;28;20645;-68
2022/05/19 08:54:38;;;;;;;4.33;3.30;;;;;;;;;;4969417;28;20273;-68
2022/05/19 08:57:30;;;;;;;3.63;3.20;;;;;;;;;;4990233;28;20193;-68
2022/05/19 09:00:06;;;;;;;5.37;3.10;;;;;;;;;;4978728;28;20422;-68
2022/05/19 09:03:04;;;;;;;4.83;3.20;;;;;;;;;;4965595;28;20242;-68
2022/05/19 09:05:53;;;;;;;3.87;3.00;;;;;;;;;;4995250;28;20213;-68
2022/05/19 09:08:44;;;;;;;6.63;3.00;;;;;;;;;;4987327;28;20208;-65
2022/05/19 09:11:23;;;;;;;5.13;3.30;;;;;;;;;;4987934;28;20199;-66
2022/05/19 09:13:57;;;;;;;3.40;3.03;;;;;;;;;;5006332;28;20267;-65
2022/05/19 09:16:33;;;;;;;3.33;2.70;;;;;;;;;;5001358;28;20226;-65
2022/05/19 09:19:16;;;;;;;4.23;3.13;;;;;;;;;;5011273;28;20207;-64
2022/05/19 09:21:45;;;;;;;5.33;2.90;;;;;;;;;;5008548;28;20217;-65
2022/05/19 09:24:16;;;;;;;5.03;3.30;;;;;;;;;;4995195;28;20216;-67
2022/05/19 09:26:52;;;;;;;3.87;3.07;;;;;;;;;;5004662;28;20219;-65
2022/05/19 09:29:28;;;;;;;5.37;3.40;;;;;;;;;;5013690;28;20640;-65
2022/05/19 09:32:06;;;;;;;3.83;3.40;;;;;;;;;;5009229;28;20211;-66
2022/05/19 09:34:34;;;;;;;4.33;3.07;;;;;;;;;;4998815;28;20203;-66
2022/05/19 09:37:11;;;;;;;3.17;2.87;;;;;;;;;;5006988;28;20405;-65
2022/05/19 09:40:04;;;;;;;3.67;3.27;;;;;;;;;;4993165;28;20223;-66
2022/05/19 09:43:06;;;;;;;3.43;3.10;;;;;;;;;;4980626;28;20715;-65
2022/05/19 09:45:41;;;;;;;3.43;3.13;;;;;;;;;;5011436;28;20825;-65
2022/05/19 09:48:11;;;;;;;3.73;3.43;;;;;;;;;;5008898;28;20222;-65
2022/05/19 09:50:47;;;;;;;5.77;3.30;;;;;;;;;;4988663;28;20251;-65
2022/05/19 09:53:27;;;;;;;4.70;3.63;;;;;;;;;;5008370;28;20210;-65
2022/05/19 09:56:08;;;;;;;5.23;3.53;;;;;;;;;;5001443;28;20216;-65
2022/05/19 09:58:41;;;;;;;8.10;3.60;;;;;;;;;;5003085;28;20223;-65
2022/05/19 10:01:34;;;;;;;3.93;3.50;;;;;;;;;;5010593;28;20221;-66
2022/05/19 10:04:03;;;;;;;3.90;3.50;;;;;;;;;;5002428;28;20199;-66
2022/05/19 10:06:55;;;;;;;5.17;3.23;;;;;;;;;;4994408;28;20678;-64
2022/05/19 10:09:32;;;;;;;3.53;3.23;;;;;;;;;;4998569;28;20223;-65
2022/05/19 10:12:14;;;;;;;5.43;3.50;;;;;;;;;;4988267;28;20830;-65
2022/05/19 10:14:42;;;;;;;4.00;3.33;;;;;;;;;;4996184;28;20563;-64
2022/05/19 10:17:09;;;;;;;4.07;3.60;;;;;;;;;;5007787;28;20203;-64
2022/05/19 10:19:55;;;;;;;3.67;3.37;;;;;;;;;;4983653;28;20719;-64
2022/05/19 10:22:28;;;;;;;5.23;3.43;;;;;;;;;;5007989;28;20242;-65
2022/05/19 10:25:04;;;;;;;10.00;3.67;;;;;;;;;;5007844;28;20211;-64
2022/05/19 10:31:04;;;;;;;3.67;3.37;;;;;;;;;;5005817;28;20206;-65
2022/05/19 10:33:57;;;;;;;6.60;3.23;;;;;;;;;;5004163;28;20199;-65
2022/05/19 10:36:34;;;;;;;7.07;3.43;;;;;;;;;;4994697;28;20692;-64
2022/05/19 10:39:21;;;;;;;6.70;3.67;;;;;;;;;;5000831;28;20187;-65
2022/05/19 10:42:31;;;;;;;4.73;3.80;;;;;;;;;;5000892;28;20275;-64
2022/05/19 10:45:10;;;;;;;5.73;3.20;;;;;;;;;;4969133;28;20293;-65
2022/05/19 10:47:56;;;;;;;6.53;3.20;;;;;;;;;;4996959;28;20267;-67
2022/05/19 10:50:35;;;;;;;6.90;3.28;;;;;;;;;;5003998;28;20440;-68
2022/05/19 10:53:26;;;;;;;5.50;3.50;;;;;;;;;;4999284;28;20261;-65
2022/05/19 10:56:26;;;;;;;4.07;3.60;;;;;;;;;;5051381;27;20613;-66
2022/05/19 10:59:00;;;;;;;3.57;3.27;;;;;;;;;;5040178;28;20205;-66
2022/05/19 11:01:55;;;;;;;3.67;3.30;;;;;;;;;;5038849;28;20225;-66
2022/05/19 11:04:45;;;;;;;3.67;2.93;;;;;;;;;;4996534;28;20220;-65
2022/05/19 11:07:21;;;;;;;4.87;3.27;;;;;;;;;;4999398;28;20640;-66
2022/05/19 11:10:02;;;;;;;3.50;3.07;;;;;;;;;;4997972;28;20331;-67
2022/05/19 11:12:42;;;;;;;5.43;3.23;;;;;;;;;;4995659;28;20200;-66
2022/05/19 11:15:32;;;;;;;5.43;3.63;;;;;;;;;;4993228;28;20244;-68
2022/05/19 11:18:04;;;;;;;4.70;3.23;;;;;;;;;;5045940;28;20227;-65
2022/05/19 11:20:38;;;;;;;3.70;3.30;;;;;;;;;;5020561;28;20663;-66
2022/05/19 11:23:11;;;;;;;4.00;3.37;;;;;;;;;;5027450;28;20203;-65
2022/05/19 11:28:47;;;;;;;4.07;3.43;;;;;;;;;;5019744;28;20206;-68
2022/05/19 11:31:16;;;;;;;3.87;3.33;;;;;;;;;;5023529;28;20254;-65
2022/05/19 11:33:46;;;;;;;3.80;3.03;;;;;;;;;;5025794;28;20203;-66
2022/05/19 11:36:36;;;;;;;3.67;3.00;;;;;;;;;;5006993;28;20225;-68
2022/05/19 11:39:14;;;;;;;5.30;3.20;;;;;;;;;;5017470;28;20219;-67
2022/05/19 11:41:43;;;;;;;6.37;3.50;;;;;;;;;;5022667;28;20211;-66
2022/05/19 11:44:31;;;;;;;4.07;3.33;;;;;;;;;;5024571;28;20744;-67
2022/05/19 11:47:01;;;;;;;3.47;3.17;;;;;;;;;;5021643;28;20234;-67
2022/05/19 11:55:42;;;;;;;5.40;3.40;;;;;;;;;;5017292;28;20245;-65
2022/05/19 11:58:20;;;;;;;6.40;3.63;;;;;;;;;;5023059;28;20203;-67
2022/05/19 12:00:58;;;;;;;28.90;4.63;;;;;;;;;;5017961;28;20221;-65
2022/05/19 12:03:44;;;;;;;31.90;4.67;;;;;;;;;;5025687;28;20211;-67
2022/05/19 12:06:13;;;;;;;21.90;3.93;;;;;;;;;;5021790;28;20192;-65
2022/05/19 12:08:52;;;;;;;14.77;3.87;;;;;;;;;;5000900;28;20243;-65
2022/05/19 12:11:22;;;;;;;13.47;3.73;;;;;;;;;;5014280;28;20199;-65
2022/05/19 12:14:08;;;;;;;12.80;3.03;;;;;;;;;;5012917;28;20439;-65
2022/05/19 12:16:47;;;;;;;11.43;3.10;;;;;;;;;;5013390;28;20245;-63
2022/05/19 12:19:36;;;;;;;10.60;2.30;;;;;;;;;;5007266;28;20211;-64
2022/05/19 12:22:24;;;;;;;8.23;2.03;;;;;;;;;;5004117;28;20215;-64
2022/05/19 12:24:55;;;;;;;10.47;2.90;;;;;;;;;;5004129;28;20215;-65
2022/05/19 12:27:32;;;;;;;6.47;2.10;;;;;;;;;;5008717;28;20286;-64
2022/05/19 12:33:30;;;;;;;5.53;1.97;;;;;;;;;;5007205;28;20200;-65
2022/05/19 12:36:05;;;;;;;6.43;2.03;;;;;;;;;;5002158;28;20269;-64
2022/05/19 12:38:34;;;;;;;5.20;2.10;;;;;;;;;;5001902;28;20210;-64
2022/05/19 12:41:23;;;;;;;5.77;1.70;;;;;;;;;;5007012;28;20250;-64
2022/05/19 12:43:53;;;;;;;2.47;1.60;;;;;;;;;;5007250;28;20200;-64
2022/05/19 12:46:38;;;;;;;2.53;1.63;;;;;;;;;;5005927;28;20751;-65
2022/05/19 12:49:31;;;;;;;5.53;1.80;;;;;;;;;;4998455;28;20514;-65
2022/05/19 12:52:01;;;;;;;2.03;1.70;;;;;;;;;;5005125;28;20211;-69
2022/05/19 12:54:31;;;;;;;2.37;1.73;;;;;;;;;;5002578;28;20244;-68
2022/05/19 12:57:10;;;;;;;6.47;2.03;;;;;;;;;;5005772;28;20218;-65
2022/05/19 12:59:57;;;;;;;4.27;1.63;;;;;;;;;;5007127;28;20199;-65
2022/05/19 13:02:45;;;;;;;2.80;1.67;;;;;;;;;;5002589;28;20525;-66
2022/05/19 13:05:22;;;;;;;2.63;1.70;;;;;;;;;;5007985;28;20207;-66
2022/05/19 13:08:16;;;;;;;3.23;1.90;;;;;;;;;;4976793;28;20218;-66
2022/05/19 13:10:46;;;;;;;2.67;1.63;;;;;;;;;;5001346;28;20215;-66
2022/05/19 13:13:25;;;;;;;3.37;2.00;;;;;;;;;;5010988;28;20220;-66
2022/05/19 13:15:59;;;;;;;8.17;2.40;;;;;;;;;;5008032;28;20657;-67
2022/05/19 13:18:33;;;;;;;2.57;2.00;;;;;;;;;;5001542;28;20211;-66
2022/05/19 13:21:07;;;;;;;4.07;2.20;;;;;;;;;;5007820;28;20290;-67
2022/05/19 13:23:37;;;;;;;2.83;1.87;;;;;;;;;;5009339;28;20204;-67
2022/05/19 13:26:13;;;;;;;4.57;2.20;;;;;;;;;;5003674;28;20220;-66
2022/05/19 13:31:49;;;;;;;7.17;2.23;;;;;;;;;;5006415;28;20191;-66
2022/05/19 13:34:17;;;;;;;12.30;2.50;;;;;;;;;;5002876;28;20282;-67
2022/05/19 13:36:51;;;;;;;4.73;2.10;;;;;;;;;;4996600;28;20234;-66
2022/05/19 13:39:19;;;;;;;3.87;2.70;;;;;;;;;;5005170;28;20226;-66
2022/05/19 13:41:48;;;;;;;5.27;2.70;;;;;;;;;;5006861;28;20587;-66
2022/05/19 13:44:17;;;;;;;5.20;2.90;;;;;;;;;;5005483;28;20215;-67
2022/05/19 13:46:45;;;;;;;3.60;3.07;;;;;;;;;;5004342;28;20635;-67
2022/05/19 13:49:21;;;;;;;3.37;2.37;;;;;;;;;;5002980;28;20277;-69
2022/05/19 13:51:49;;;;;;;3.23;2.57;;;;;;;;;;5007074;28;20719;-66
2022/05/19 13:54:28;;;;;;;3.80;2.80;;;;;;;;;;5004079;28;20263;-67
2022/05/19 13:56:59;;;;;;;3.93;2.93;;;;;;;;;;5008576;28;20209;-68
2022/05/19 13:59:30;;;;;;;4.73;3.10;;;;;;;;;;5007130;28;20196;-66
2022/05/19 14:02:00;;;;;;;5.53;3.00;;;;;;;;;;5003302;28;20212;-68
2022/05/19 14:04:29;;;;;;;5.60;2.17;;;;;;;;;;4999890;28;20206;-69
2022/05/19 14:06:57;;;;;;;2.93;2.43;;;;;;;;;;5003293;28;20219;-68
2022/05/19 14:09:45;;;;;;;3.80;2.23;;;;;;;;;;5002942;28;20574;-69
2022/05/19 14:12:22;;;;;;;3.47;2.30;;;;;;;;;;5000134;28;20188;-67
2022/05/19 14:14:54;;;;;;;2.57;2.27;;;;;;;;;;5005043;28;20230;-69
2022/05/19 14:17:22;;;;;;;2.43;2.23;;;;;;;;;;5004460;28;20200;-70
2022/05/19 14:19:49;;;;;;;2.73;2.40;;;;;;;;;;5005709;28;20200;-71
2022/05/19 14:22:18;;;;;;;2.70;2.23;;;;;;;;;;5006025;28;20192;-68
2022/05/19 14:24:46;;;;;;;2.77;2.23;;;;;;;;;;4997506;28;20200;-70
2022/05/19 14:27:15;;;;;;;2.40;2.10;;;;;;;;;;5007286;28;20194;-69
2022/05/19 14:29:44;;;;;;;2.53;2.27;;;;;;;;;;5006683;28;20208;-66
2022/05/19 14:32:33;;;;;;;4.77;2.37;;;;;;;;;;5007724;28;20219;-68
2022/05/19 14:35:21;;;;;;;2.43;2.20;;;;;;;;;;5010441;28;20216;-68
2022/05/19 14:37:53;;;;;;;2.67;2.20;;;;;;;;;;5015451;28;20299;-67
2022/05/19 14:43:29;;;;;;;8.30;2.60;;;;;;;;;;5004304;28;20532;-66
2022/05/19 14:46:00;;;;;;;2.33;2.13;;;;;;;;;;5005532;28;20196;-70
2022/05/19 14:48:38;;;;;;;4.47;2.00;;;;;;;;;;4999628;28;20207;-68
2022/05/19 14:51:11;;;;;;;5.60;2.27;;;;;;;;;;5002905;28;20669;-68
2022/05/19 14:53:43;;;;;;;2.13;1.90;;;;;;;;;;5000761;28;20195;-69
2022/05/19 14:56:14;;;;;;;3.20;1.93;;;;;;;;;;5004605;28;20219;-69
2022/05/19 14:59:06;;;;;;;2.63;2.00;;;;;;;;;;5002024;28;20234;-68
2022/05/19 15:01:38;;;;;;;2.07;1.80;;;;;;;;;;5001582;28;20222;-68
2022/05/19 15:04:06;;;;;;;2.70;2.40;;;;;;;;;;5004438;28;20191;-68
2022/05/19 15:06:33;;;;;;;2.30;2.03;;;;;;;;;;5002434;28;20203;-68
2022/05/19 15:09:03;;;;;;;1.93;1.73;;;;;;;;;;5004717;28;20208;-67
2022/05/19 15:11:35;;;;;;;2.23;1.97;;;;;;;;;;5002001;28;20191;-67
2022/05/19 15:14:03;;;;;;;5.00;2.10;;;;;;;;;;5000459;28;20570;-67
2022/05/19 15:16:30;;;;;;;1.83;1.70;;;;;;;;;;5004242;28;20224;-69
2022/05/19 15:19:02;;;;;;;3.90;2.23;;;;;;;;;;5005917;28;20192;-68
2022/05/19 15:21:33;;;;;;;3.97;3.27;;;;;;;;;;5004534;28;20196;-68
2022/05/19 15:24:02;;;;;;;5.97;3.13;;;;;;;;;;5004757;28;20200;-72
2022/05/19 15:26:31;;;;;;;4.47;3.23;;;;;;;;;;4999670;28;20222;-71
2022/05/19 15:29:01;;;;;;;4.20;3.23;;;;;;;;;;5005653;28;20216;-70
2022/05/19 15:31:31;;;;;;;4.73;3.27;;;;;;;;;;5006418;28;20909;-70
2022/05/19 15:33:59;;;;;;;5.20;3.80;;;;;;;;;;5007481;28;20192;-67
2022/05/19 15:36:28;;;;;;;5.77;4.00;;;;;;;;;;5001609;28;20340;-71
2022/05/19 15:38:58;;;;;;;5.13;4.40;;;;;;;;;;5004840;28;20279;-71
2022/05/19 15:41:27;;;;;;;8.80;4.80;;;;;;;;;;5008290;28;20199;-71
2022/05/19 15:43:57;;;;;;;8.83;4.90;;;;;;;;;;5008645;28;20194;-71
2022/05/19 15:46:33;;;;;;;6.37;4.30;;;;;;;;;;5007136;28;20204;-71
2022/05/19 15:49:01;;;;;;;4.97;3.60;;;;;;;;;;5001561;28;20250;-70
2022/05/19 15:51:30;;;;;;;7.73;4.27;;;;;;;;;;5009074;28;20192;-70